Time;durP1;ratioP1;P1;durP2;ratioP2;P2;SDS_P1;SDS_P2;PMS_P1;PMS_P2;Temp;Humidity;BMP_temperature;BMP_pressure;BME280_temperature;BME280_humidity;BME280_pressure;Samples;Min_cycle;Max_cycle;Signal;HPM_P1;HPM_P2
2021/06/12 00:01:14;;;;;;;2.90;2.80;;;;;;;15.27;89.33;99229.34;6151141;23;20178;-81
2021/06/12 00:03:40;;;;;;;2.85;2.75;;;;;;;15.26;89.51;99227.66;6150623;23;20044;-78
2021/06/12 00:06:06;;;;;;;2.95;2.75;;;;;;;15.30;89.82;99226.22;6150575;23;20093;-79
2021/06/12 00:08:32;;;;;;;2.80;2.60;;;;;;;15.25;90.06;99220.50;6150395;23;20029;-80
2021/06/12 00:11:01;;;;;;;2.85;2.75;;;;;;;15.25;90.22;99220.50;6126299;23;20026;-80
2021/06/12 00:13:27;;;;;;;3.00;2.80;;;;;;;15.23;90.27;99214.41;6126375;23;20017;-80
2021/06/12 00:15:55;;;;;;;3.10;2.90;;;;;;;15.24;90.21;99218.81;6077484;23;20084;-80
2021/06/12 00:18:21;;;;;;;3.20;3.00;;;;;;;15.20;90.42;99213.75;6150220;23;20129;-79
2021/06/12 00:20:48;;;;;;;3.25;3.05;;;;;;;15.19;90.71;99217.53;6150854;23;20412;-81
2021/06/12 00:23:13;;;;;;;2.88;2.78;;;;;;;15.18;90.58;99210.41;6125841;23;20121;-81
2021/06/12 00:25:39;;;;;;;3.28;3.05;;;;;;;15.14;90.47;99209.09;6154808;23;20459;-79
2021/06/12 00:28:06;;;;;;;2.83;2.63;;;;;;;15.09;90.57;99211.53;6127543;23;20017;-80
2021/06/12 00:30:32;;;;;;;2.83;2.70;;;;;;;15.12;90.63;99213.88;6152081;23;20021;-80
2021/06/12 00:33:14;;;;;;;2.95;2.75;;;;;;;15.02;90.87;99207.88;6152993;23;20432;-81
2021/06/12 00:35:40;;;;;;;2.90;2.70;;;;;;;15.08;90.88;99209.00;6129894;23;20021;-79
2021/06/12 00:38:08;;;;;;;3.00;2.80;;;;;;;15.11;90.59;99204.03;6128991;23;20075;-79
2021/06/12 00:40:35;;;;;;;2.83;2.63;;;;;;;15.12;90.67;99199.41;6153244;23;20022;-79
2021/06/12 00:43:02;;;;;;;2.83;2.63;;;;;;;15.10;90.98;99196.91;6129609;23;20017;-81
2021/06/12 00:45:30;;;;;;;2.40;2.30;;;;;;;15.13;90.87;99196.50;6103114;23;20088;-79
2021/06/12 00:47:56;;;;;;;2.70;2.50;;;;;;;15.11;90.80;99193.13;6152377;23;20025;-80
2021/06/12 00:50:23;;;;;;;2.60;2.50;;;;;;;15.16;90.43;99195.28;6125660;23;20089;-79
2021/06/12 00:52:49;;;;;;;2.70;2.58;;;;;;;15.17;90.32;99195.09;6151859;23;20365;-80
2021/06/12 00:55:16;;;;;;;2.65;2.45;;;;;;;15.16;90.49;99190.66;6150018;23;20021;-79
2021/06/12 00:57:43;;;;;;;2.67;2.47;;;;;;;15.14;90.29;99195.47;6150376;23;20028;-80
2021/06/12 01:00:17;;;;;;;2.58;2.47;;;;;;;15.13;90.37;99191.03;6101941;23;20444;-79
2021/06/12 01:02:43;;;;;;;2.88;2.78;;;;;;;15.15;90.27;99194.44;6152041;23;20029;-80
2021/06/12 01:05:10;;;;;;;2.65;2.45;;;;;;;15.22;90.15;99205.41;6151181;23;20044;-79
2021/06/12 01:07:36;;;;;;;2.78;2.58;;;;;;;15.20;90.12;99194.69;6150931;23;20399;-82
2021/06/12 01:10:05;;;;;;;2.95;2.75;;;;;;;15.27;90.26;99205.66;6126482;23;20096;-80
2021/06/12 01:12:49;;;;;;;2.88;2.67;;;;;;;15.29;90.30;99205.50;6151752;23;20089;-80
2021/06/12 01:15:17;;;;;;;2.75;2.65;;;;;;;15.31;89.90;99197.94;6150471;23;20079;-78
2021/06/12 01:17:56;;;;;;;2.58;2.47;;;;;;;15.26;89.68;99189.53;6125561;23;20025;-79
2021/06/12 01:20:44;;;;;;;2.72;2.55;;;;;;;15.31;89.65;99197.94;6125309;23;20029;-80
2021/06/12 01:23:09;;;;;;;3.17;2.97;;;;;;;15.29;89.65;99195.44;6150455;23;20547;-79
2021/06/12 01:25:53;;;;;;;3.00;2.80;;;;;;;15.33;89.92;99195.91;6152728;23;20056;-79
2021/06/12 01:28:44;;;;;;;3.10;2.90;;;;;;;15.34;90.25;99192.97;6152463;23;20021;-81
2021/06/12 01:31:11;;;;;;;2.85;2.65;;;;;;;15.34;90.05;99192.13;6152429;23;20022;-78
2021/06/12 01:33:40;;;;;;;2.80;2.60;;;;;;;15.33;90.00;99190.44;6151955;23;20044;-78
2021/06/12 01:36:07;;;;;;;3.08;2.88;;;;;;;15.34;90.01;99194.84;6151799;23;20412;-79
2021/06/12 01:38:36;;;;;;;3.10;2.90;;;;;;;15.38;89.72;99198.88;6150491;23;20024;-79
2021/06/12 01:41:05;;;;;;;2.90;2.70;;;;;;;15.36;89.04;99200.97;6125497;23;20022;-79
2021/06/12 01:43:31;;;;;;;2.40;2.30;;;;;;;15.34;89.18;99198.41;6151654;23;20017;-80
2021/06/12 01:45:58;;;;;;;2.70;2.50;;;;;;;15.32;89.41;99195.06;6126227;23;20021;-79
2021/06/12 01:48:24;;;;;;;2.65;2.50;;;;;;;15.38;89.02;99193.41;6151264;23;20310;-81
2021/06/12 01:50:51;;;;;;;2.42;2.33;;;;;;;15.38;89.09;99187.97;6152258;23;20030;-79
2021/06/12 01:53:18;;;;;;;2.85;2.70;;;;;;;15.41;89.33;99193.03;6151898;23;20029;-80
2021/06/12 01:55:47;;;;;;;2.42;2.33;;;;;;;15.42;89.32;99200.16;6150769;23;20380;-79
2021/06/12 01:58:18;;;;;;;2.30;2.20;;;;;;;15.44;89.11;99203.56;6077772;23;20361;-80
2021/06/12 02:00:45;;;;;;;2.40;2.30;;;;;;;15.49;88.96;99201.06;6149449;23;20035;-78
2021/06/12 02:03:12;;;;;;;2.33;2.22;;;;;;;15.50;89.21;99205.47;6150089;23;20109;-79
2021/06/12 02:05:40;;;;;;;2.40;2.30;;;;;;;15.53;88.93;99202.38;6151130;23;20017;-79
2021/06/12 02:08:07;;;;;;;2.47;2.38;;;;;;;15.56;88.76;99199.25;6149488;23;20073;-78
2021/06/12 02:10:32;;;;;;;2.30;2.20;;;;;;;15.56;88.52;99193.81;6100651;23;20014;-80
2021/06/12 02:12:59;;;;;;;2.40;2.20;;;;;;;15.55;88.42;99189.41;6149792;23;20121;-79
2021/06/12 02:15:27;;;;;;;2.45;2.35;;;;;;;15.56;88.46;99185.66;6125176;23;20021;-79
2021/06/12 02:17:55;;;;;;;2.38;2.28;;;;;;;15.59;87.99;99190.72;6125461;23;20248;-77
2021/06/12 02:20:22;;;;;;;2.00;1.90;;;;;;;15.63;88.00;99181.09;6149128;23;20040;-79
2021/06/12 02:22:52;;;;;;;2.17;2.08;;;;;;;15.66;87.81;99185.34;6124876;23;20029;-78
2021/06/12 02:25:18;;;;;;;2.78;2.60;;;;;;;15.66;87.73;99186.19;6125350;23;20029;-79
2021/06/12 02:27:49;;;;;;;2.70;2.50;;;;;;;15.66;87.79;99180.75;6124816;23;20025;-78
2021/06/12 02:30:21;;;;;;;2.50;2.40;;;;;;;15.75;87.68;99186.06;6151063;23;20460;-80
2021/06/12 02:33:00;;;;;;;2.90;2.70;;;;;;;15.78;87.41;99186.50;6132523;23;20126;-79
2021/06/12 02:35:27;;;;;;;2.72;2.60;;;;;;;15.82;87.65;99184.22;6179651;23;20456;-79
2021/06/12 02:37:57;;;;;;;3.25;3.05;;;;;;;15.78;87.73;99182.94;6157085;23;20018;-83
2021/06/12 02:40:23;;;;;;;2.70;2.60;;;;;;;15.81;87.77;99174.38;6156562;23;20044;-81
2021/06/12 02:42:51;;;;;;;2.70;2.60;;;;;;;15.77;87.85;99186.72;6152325;23;20021;-80
2021/06/12 02:45:17;;;;;;;2.50;2.40;;;;;;;15.75;88.16;99194.22;6149008;23;20056;-78
2021/06/12 02:47:52;;;;;;;2.55;2.42;;;;;;;15.65;88.24;99195.41;6151327;23;20021;-80
2021/06/12 02:50:21;;;;;;;2.90;2.70;;;;;;;15.76;88.27;99190.47;6150135;23;20486;-79
2021/06/12 02:52:50;;;;;;;2.40;2.30;;;;;;;15.85;88.03;99192.03;6100432;23;20058;-79
2021/06/12 02:55:15;;;;;;;2.90;2.70;;;;;;;15.85;88.23;99189.28;6125700;23;20393;-79
2021/06/12 02:57:46;;;;;;;3.00;2.80;;;;;;;15.86;88.58;99190.97;6151800;23;20072;-78
2021/06/12 03:00:13;;;;;;;2.40;2.30;;;;;;;15.82;88.33;99195.97;6176750;23;20049;-79
2021/06/12 03:02:41;;;;;;;2.65;2.50;;;;;;;15.84;88.29;99193.91;6152155;23;20040;-79
2021/06/12 03:05:10;;;;;;;2.58;2.47;;;;;;;15.85;88.31;99194.75;6152118;23;20021;-80
2021/06/12 03:07:36;;;;;;;2.50;2.40;;;;;;;15.87;87.60;99190.78;6126313;23;20081;-78
2021/06/12 03:10:03;;;;;;;2.45;2.30;;;;;;;15.92;87.21;99190.19;6153614;23;20060;-80
2021/06/12 03:12:30;;;;;;;2.55;2.35;;;;;;;15.92;87.23;99190.19;6155004;23;20068;-79
2021/06/12 03:15:00;;;;;;;2.33;2.20;;;;;;;15.94;87.20;99199.00;6150877;23;20017;-78
2021/06/12 03:17:28;;;;;;;2.50;2.38;;;;;;;15.96;87.02;99191.47;6148806;23;20021;-79
2021/06/12 03:19:56;;;;;;;2.22;2.13;;;;;;;16.03;86.74;99181.47;6172761;23;20025;-79
2021/06/12 03:22:22;;;;;;;2.55;2.45;;;;;;;16.09;86.93;99185.31;6148540;23;20104;-78
2021/06/12 03:24:48;;;;;;;2.28;2.17;;;;;;;16.15;87.04;99192.69;6150715;23;20037;-79
2021/06/12 03:27:18;;;;;;;2.70;2.50;;;;;;;16.12;86.84;99188.47;6149960;23;20369;-81
2021/06/12 03:29:44;;;;;;;2.80;2.65;;;;;;;16.14;86.14;99180.09;6150651;23;20037;-80
2021/06/12 03:32:10;;;;;;;2.55;2.42;;;;;;;16.17;86.13;99178.84;6149412;23;20467;-80
2021/06/12 03:34:36;;;;;;;2.80;2.60;;;;;;;16.25;86.23;99176.81;6148563;23;20032;-80
2021/06/12 03:37:03;;;;;;;2.60;2.50;;;;;;;16.30;86.17;99179.75;6124786;23;20025;-78
2021/06/12 03:39:28;;;;;;;2.83;2.63;;;;;;;16.37;85.61;99182.53;6148888;23;20352;-80
2021/06/12 03:41:55;;;;;;;2.85;2.65;;;;;;;16.43;85.63;99181.75;6151732;23;20354;-79
2021/06/12 03:44:21;;;;;;;2.92;2.72;;;;;;;16.48;85.23;99183.88;6149192;23;20037;-79
2021/06/12 03:46:48;;;;;;;2.70;2.60;;;;;;;16.48;85.07;99172.97;6125060;23;20021;-79
2021/06/12 03:49:17;;;;;;;2.85;2.65;;;;;;;16.44;85.16;99180.69;6100903;23;20092;-80
2021/06/12 03:51:43;;;;;;;2.85;2.75;;;;;;;16.44;85.61;99188.88;6150799;23;20032;-80
2021/06/12 03:54:09;;;;;;;3.40;3.10;;;;;;;16.44;85.37;99177.13;6126039;23;20049;-79
2021/06/12 03:56:38;;;;;;;3.15;2.83;;;;;;;16.41;85.49;99183.81;6149307;23;20135;-81
2021/06/12 03:59:05;;;;;;;3.70;3.40;;;;;;;16.41;85.13;99186.56;6124662;23;20044;-79
2021/06/12 04:01:31;;;;;;;3.20;3.00;;;;;;;16.48;85.26;99181.97;6149434;23;20022;-79
2021/06/12 04:03:57;;;;;;;3.42;3.22;;;;;;;16.44;84.99;99177.97;6124700;23;20021;-82
2021/06/12 04:06:23;;;;;;;3.80;3.50;;;;;;;16.50;84.85;99189.97;6151534;23;20365;-78
2021/06/12 04:08:49;;;;;;;3.38;3.17;;;;;;;16.56;84.42;99187.31;6149138;23;20013;-80
2021/06/12 04:11:16;;;;;;;3.50;3.30;;;;;;;16.59;84.63;99180.56;6150361;23;20018;-82
2021/06/12 04:13:42;;;;;;;3.60;3.40;;;;;;;16.56;84.29;99173.66;6149484;23;20063;-83
2021/06/12 04:16:09;;;;;;;3.90;3.60;;;;;;;16.63;84.12;99177.22;6125393;23;20092;-81
2021/06/12 04:18:35;;;;;;;4.00;3.80;;;;;;;16.75;84.21;99180.28;6148967;23;20069;-80
2021/06/12 04:21:01;;;;;;;3.50;3.30;;;;;;;16.81;83.96;99179.44;6150770;23;20168;-80
2021/06/12 04:23:26;;;;;;;3.97;3.67;;;;;;;16.81;83.45;99192.25;6150652;23;20076;-81
2021/06/12 04:25:52;;;;;;;4.53;4.22;;;;;;;16.84;83.51;99184.50;6150809;23;20377;-80
2021/06/12 04:28:18;;;;;;;4.15;3.85;;;;;;;16.95;83.43;99179.53;6150906;23;20021;-79
2021/06/12 04:30:44;;;;;;;4.22;3.92;;;;;;;17.02;83.04;99170.31;6151000;23;20040;-82
2021/06/12 04:33:10;;;;;;;3.53;3.33;;;;;;;17.06;82.62;99160.66;6149845;23;20360;-80
2021/06/12 04:35:36;;;;;;;3.38;3.10;;;;;;;17.20;81.77;99171.63;6125862;23;20068;-80
2021/06/12 04:38:03;;;;;;;3.45;3.25;;;;;;;17.38;81.63;99179.25;6150854;23;20081;-80
2021/06/12 04:40:33;;;;;;;2.70;2.50;;;;;;;17.41;80.85;99170.63;6151751;23;20041;-81
2021/06/12 04:43:00;;;;;;;2.97;2.78;;;;;;;17.42;81.18;99178.63;6127147;23;20024;-80
2021/06/12 04:45:26;;;;;;;3.20;3.00;;;;;;;17.46;81.00;99171.69;6151887;23;20316;-80
2021/06/12 04:47:52;;;;;;;2.90;2.78;;;;;;;17.45;80.49;99169.16;6152279;23;20346;-80
2021/06/12 04:50:18;;;;;;;2.90;2.70;;;;;;;17.43;80.65;99161.16;6103346;23;20448;-80
2021/06/12 04:52:44;;;;;;;2.80;2.60;;;;;;;17.53;80.53;99166.22;6102476;23;20084;-79
2021/06/12 04:55:11;;;;;;;2.55;2.45;;;;;;;17.59;80.62;99177.19;6154193;23;20017;-80
2021/06/12 04:57:38;;;;;;;2.88;2.67;;;;;;;17.64;79.65;99170.25;6157835;23;20028;-82
2021/06/12 05:00:07;;;;;;;2.83;2.63;;;;;;;17.66;80.04;99168.13;6159831;23;20041;-81
2021/06/12 05:02:33;;;;;;;2.75;2.60;;;;;;;17.72;79.93;99159.09;6159920;23;20022;-81
2021/06/12 05:04:59;;;;;;;2.83;2.63;;;;;;;17.85;79.66;99159.16;6161302;23;20025;-81
2021/06/12 05:07:25;;;;;;;2.80;2.60;;;;;;;18.06;78.87;99163.53;6158904;23;20025;-81
2021/06/12 05:09:51;;;;;;;2.75;2.55;;;;;;;18.23;78.91;99164.78;6157532;23;20026;-80
2021/06/12 05:12:17;;;;;;;3.05;2.85;;;;;;;18.22;79.75;99159.53;6110143;23;20036;-79
2021/06/12 05:14:45;;;;;;;3.20;3.00;;;;;;;18.41;77.57;99166.84;6160030;23;20081;-79
2021/06/12 05:17:14;;;;;;;4.22;3.92;;;;;;;18.63;76.86;99161.94;6162210;23;20132;-82
2021/06/12 05:19:40;;;;;;;3.60;3.40;;;;;;;18.89;75.94;99161.03;6160273;23;20036;-82
2021/06/12 05:22:06;;;;;;;4.10;3.80;;;;;;;19.22;75.29;99154.56;6137287;23;20115;-82
2021/06/12 05:24:35;;;;;;;4.53;4.22;;;;;;;19.68;74.64;99151.56;6140068;23;20017;-82
2021/06/12 05:27:01;;;;;;;4.50;4.20;;;;;;;20.06;72.72;99138.78;6161090;23;20026;-81
2021/06/12 05:29:27;;;;;;;4.82;4.43;;;;;;;19.95;72.20;99149.44;6162175;23;20025;-80
2021/06/12 05:31:53;;;;;;;5.38;5.00;;;;;;;19.64;72.99;99147.59;6159966;23;20152;-81
2021/06/12 05:34:19;;;;;;;5.65;5.25;;;;;;;19.45;73.67;99143.03;6159142;23;20484;-81
2021/06/12 05:36:44;;;;;;;7.10;6.60;;;;;;;19.40;73.32;99143.69;6161822;23;20049;-79
2021/06/12 05:39:16;;;;;;;6.40;6.00;;;;;;;19.28;74.43;99137.25;6160872;23;20128;-82
2021/06/12 05:41:43;;;;;;;6.63;6.22;;;;;;;19.32;74.61;99135.75;6135230;23;20155;-80
2021/06/12 05:44:10;;;;;;;6.30;5.90;;;;;;;19.36;75.25;99150.69;6115625;23;20069;-79
2021/06/12 05:46:36;;;;;;;7.15;6.55;;;;;;;19.25;75.07;99148.66;6161050;23;20025;-83
2021/06/12 05:49:05;;;;;;;6.75;6.32;;;;;;;19.23;74.99;99150.75;6161085;23;20080;-81
2021/06/12 05:51:31;;;;;;;6.57;6.18;;;;;;;19.23;74.48;99142.53;6157689;23;20033;-82
2021/06/12 05:53:57;;;;;;;4.53;4.22;;;;;;;19.24;74.15;99133.28;6157001;23;20021;-82
2021/06/12 05:56:22;;;;;;;5.60;5.20;;;;;;;19.48;73.96;99140.69;6156620;23;20021;-80
2021/06/12 05:58:48;;;;;;;3.30;3.10;;;;;;;19.55;73.20;99145.28;6161321;23;20028;-82
2021/06/12 06:01:14;;;;;;;3.05;2.80;;;;;;;19.72;71.49;99141.81;6160673;23;20026;-81
2021/06/12 06:03:40;;;;;;;2.60;2.40;;;;;;;19.76;72.39;99133.97;6158835;23;20040;-84
2021/06/12 06:06:06;;;;;;;2.10;2.00;;;;;;;19.83;71.68;99134.78;6156418;23;20352;-81
2021/06/12 06:08:33;;;;;;;2.10;2.00;;;;;;;19.80;71.62;99129.72;6163581;23;20025;-83
2021/06/12 06:10:59;;;;;;;1.98;1.88;;;;;;;19.89;71.37;99133.00;6161480;23;20104;-81
2021/06/12 06:13:25;;;;;;;1.80;1.70;;;;;;;19.88;71.07;99129.44;6160152;23;20033;-83
2021/06/12 06:15:51;;;;;;;1.80;1.70;;;;;;;19.38;72.61;99134.88;6135800;23;20112;-82
2021/06/12 06:18:17;;;;;;;1.80;1.70;;;;;;;19.48;71.93;99137.94;6161611;23;20025;-82
2021/06/12 06:20:44;;;;;;;2.00;1.90;;;;;;;19.45;72.40;99124.69;6158381;23;20432;-82
2021/06/12 06:23:10;;;;;;;1.75;1.65;;;;;;;19.56;71.11;99127.78;6132480;23;20022;-82
2021/06/12 06:25:37;;;;;;;2.00;1.90;;;;;;;19.86;70.44;99128.84;6157238;23;20464;-81
2021/06/12 06:28:03;;;;;;;1.90;1.80;;;;;;;20.26;69.36;99128.47;6132588;23;20053;-80
2021/06/12 06:30:29;;;;;;;2.08;1.98;;;;;;;20.50;68.77;99112.19;6160045;23;20055;-83
2021/06/12 06:32:56;;;;;;;1.92;1.83;;;;;;;20.58;68.82;99120.09;6156888;23;20029;-83
2021/06/12 06:35:22;;;;;;;2.10;2.00;;;;;;;20.56;68.44;99122.25;6159177;23;20018;-81
2021/06/12 06:37:48;;;;;;;2.03;1.80;;;;;;;20.86;67.53;99114.91;6157566;23;20069;-82
2021/06/12 06:40:14;;;;;;;2.05;1.95;;;;;;;21.12;66.04;99110.13;6162092;23;20492;-82
2021/06/12 06:42:41;;;;;;;2.30;2.20;;;;;;;21.54;65.15;99108.25;6133758;23;20025;-84
2021/06/12 06:45:08;;;;;;;2.15;2.05;;;;;;;23.03;62.69;99116.06;6185274;23;20104;-83
2021/06/12 06:47:37;;;;;;;2.50;2.40;;;;;;;23.43;60.78;99119.88;6136977;23;20029;-84
2021/06/12 06:50:05;;;;;;;2.20;2.10;;;;;;;23.31;59.90;99115.25;6137717;23;20018;-83
2021/06/12 06:52:31;;;;;;;1.40;1.30;;;;;;;23.59;56.82;99116.31;6137690;23;20017;-82
2021/06/12 06:55:00;;;;;;;1.35;1.35;;;;;;;23.39;58.12;99108.47;6159822;23;20068;-82
2021/06/12 06:57:30;;;;;;;1.80;1.70;;;;;;;22.65;61.32;99113.06;6165784;23;20044;-81
2021/06/12 07:00:06;;;;;;;1.70;1.60;;;;;;;22.33;62.14;99111.53;6163266;23;20249;-83
2021/06/12 07:02:32;;;;;;;1.70;1.60;;;;;;;22.02;62.35;99109.16;6138101;23;20049;-81
2021/06/12 07:04:58;;;;;;;1.60;1.50;;;;;;;22.24;62.16;99107.50;6163330;23;20036;-83
2021/06/12 07:07:24;;;;;;;1.10;1.10;;;;;;;22.37;60.16;99109.97;6165807;23;20099;-81
2021/06/12 07:09:52;;;;;;;1.63;1.35;;;;;;;22.34;59.89;99112.38;6137122;23;20038;-83
2021/06/12 07:12:19;;;;;;;1.70;1.60;;;;;;;22.35;59.92;99095.63;6159291;23;20100;-81
2021/06/12 07:14:44;;;;;;;1.60;1.50;;;;;;;22.48;60.77;99101.94;6161511;23;20080;-83
2021/06/12 07:17:11;;;;;;;1.50;1.40;;;;;;;22.24;61.39;99112.16;6162259;23;20025;-81
2021/06/12 07:19:38;;;;;;;1.38;1.17;;;;;;;22.22;61.39;99100.53;6159743;23;20334;-82
2021/06/12 07:22:04;;;;;;;1.38;1.27;;;;;;;22.11;60.77;99103.03;6157930;23;20442;-83
2021/06/12 07:24:31;;;;;;;1.42;1.40;;;;;;;21.90;62.11;99100.88;6157837;23;20022;-82
2021/06/12 07:26:57;;;;;;;1.27;1.27;;;;;;;22.02;62.06;99103.66;6133770;23;20048;-84
2021/06/12 07:29:24;;;;;;;1.48;1.35;;;;;;;22.02;62.18;99098.97;6160847;23;20108;-83
2021/06/12 07:31:50;;;;;;;1.38;1.30;;;;;;;21.68;63.61;99097.84;6160833;23;20031;-80
2021/06/12 07:34:15;;;;;;;1.65;1.55;;;;;;;20.93;65.47;99090.91;6131308;23;20057;-82
2021/06/12 07:36:42;;;;;;;1.40;1.30;;;;;;;20.54;67.06;99102.41;6154733;23;20022;-81
2021/06/12 07:39:09;;;;;;;1.70;1.60;;;;;;;20.28;67.81;99098.88;6162239;23;20009;-81
2021/06/12 07:41:35;;;;;;;1.95;1.85;;;;;;;20.03;68.92;99100.81;6157230;23;20111;-82
2021/06/12 07:44:02;;;;;;;1.70;1.60;;;;;;;20.23;68.67;99095.97;6155708;23;20029;-82
2021/06/12 07:46:28;;;;;;;1.80;1.70;;;;;;;20.19;69.01;99094.75;6158963;23;20045;-81
2021/06/12 07:48:54;;;;;;;1.90;1.80;;;;;;;20.20;67.91;99096.44;6136005;23;20029;-84
2021/06/12 07:51:20;;;;;;;1.80;1.70;;;;;;;20.42;67.61;99105.06;6161587;23;20013;-83
2021/06/12 07:53:46;;;;;;;2.28;1.98;;;;;;;20.19;68.62;99100.25;6162581;23;20033;-83
2021/06/12 07:56:17;;;;;;;2.08;1.98;;;;;;;20.03;69.64;99100.81;6163518;23;20018;-85
2021/06/12 07:58:43;;;;;;;2.00;1.90;;;;;;;19.86;69.55;99101.41;6134694;23;20021;-83
2021/06/12 08:01:12;;;;;;;2.17;2.08;;;;;;;20.11;69.21;99097.78;6162526;23;20065;-81
2021/06/12 08:03:37;;;;;;;2.20;2.10;;;;;;;19.79;70.46;99097.88;6160061;23;20089;-84
2021/06/12 08:06:04;;;;;;;2.20;2.05;;;;;;;19.96;69.72;99089.91;6159099;23;20060;-82
2021/06/12 08:08:30;;;;;;;2.40;2.30;;;;;;;20.05;69.57;99104.19;6160513;23;20053;-83
2021/06/12 08:10:56;;;;;;;2.60;2.40;;;;;;;20.74;67.73;99103.00;6110641;23;20025;-84
2021/06/12 08:13:24;;;;;;;2.58;2.38;;;;;;;20.85;67.49;99096.75;6135222;23;20025;-84
2021/06/12 08:15:50;;;;;;;2.30;2.20;;;;;;;20.99;66.54;99096.53;6167551;23;20023;-81
2021/06/12 08:18:17;;;;;;;2.47;2.38;;;;;;;21.40;64.99;99101.28;6170356;23;20032;-81
2021/06/12 08:20:43;;;;;;;3.25;2.30;;;;;;;21.28;64.80;99098.47;6186589;23;20100;-82
2021/06/12 08:23:09;;;;;;;2.47;2.35;;;;;;;21.65;63.88;99103.84;6185907;23;20032;-81
2021/06/12 08:25:35;;;;;;;2.25;2.15;;;;;;;21.83;63.84;99106.50;6163801;23;20025;-83
2021/06/12 08:28:04;;;;;;;2.30;2.20;;;;;;;22.13;62.85;99094.53;6135389;23;20059;-84
2021/06/12 08:30:34;;;;;;;2.20;2.10;;;;;;;22.22;62.50;99098.63;6162753;23;20022;-83
2021/06/12 08:33:04;;;;;;;2.40;2.30;;;;;;;22.39;62.03;99102.31;6166995;23;20059;-83
2021/06/12 08:35:30;;;;;;;2.30;2.20;;;;;;;22.75;60.30;99102.25;6137531;23;20334;-83
2021/06/12 08:37:56;;;;;;;2.33;2.13;;;;;;;22.52;60.39;99103.13;6162275;23;20025;-81
2021/06/12 08:40:24;;;;;;;2.53;2.33;;;;;;;22.06;61.56;99096.56;6170220;23;20048;-82
2021/06/12 08:42:51;;;;;;;2.60;2.40;;;;;;;22.56;60.14;99099.69;6165175;23;20013;-84
2021/06/12 08:45:18;;;;;;;2.20;2.10;;;;;;;22.73;59.65;99110.75;6168382;23;20024;-81
2021/06/12 08:47:47;;;;;;;2.50;2.40;;;;;;;22.94;59.76;99095.50;6144847;23;20088;-83
2021/06/12 08:50:16;;;;;;;2.25;2.15;;;;;;;22.59;60.31;99092.81;6170692;23;20088;-83
2021/06/12 08:52:42;;;;;;;2.45;2.30;;;;;;;22.55;60.83;99097.13;6166880;23;20022;-84
2021/06/12 08:55:10;;;;;;;2.40;2.30;;;;;;;22.62;60.68;99103.34;6095100;23;20073;-80
2021/06/12 08:57:37;;;;;;;3.10;2.90;;;;;;;22.56;61.03;99093.28;6113825;23;20116;-83
2021/06/12 09:00:07;;;;;;;2.60;2.50;;;;;;;22.40;61.37;99089.38;6160228;23;20025;-83
2021/06/12 09:03:04;;;;;;;2.70;2.50;;;;;;;22.21;61.55;99091.44;6159457;23;20031;-85
2021/06/12 09:05:58;;;;;;;2.65;2.45;;;;;;;21.70;62.51;99090.22;6166663;23;20025;-81
2021/06/12 09:08:32;;;;;;;2.53;2.42;;;;;;;21.82;62.01;99092.97;6163513;23;20371;-82
2021/06/12 09:11:09;;;;;;;2.88;2.78;;;;;;;21.25;63.64;99087.09;6172181;23;20048;-84
2021/06/12 09:13:50;;;;;;;2.40;2.20;;;;;;;21.02;64.24;99087.84;6167973;23;20049;-83
2021/06/12 09:16:26;;;;;;;2.42;2.33;;;;;;;20.89;65.18;99084.22;6168973;23;20490;-81
2021/06/12 09:18:58;;;;;;;2.47;2.35;;;;;;;20.92;65.07;99089.25;6168187;23;20128;-83
2021/06/12 09:21:28;;;;;;;2.63;2.42;;;;;;;20.74;65.09;99097.53;6135848;23;20029;-81
2021/06/12 09:23:57;;;;;;;2.20;2.10;;;;;;;20.91;64.33;99093.06;6163575;23;20025;-83
2021/06/12 09:26:47;;;;;;;2.35;2.25;;;;;;;20.89;64.73;99089.72;6136911;23;20065;-83
2021/06/12 09:29:17;;;;;;;2.58;2.38;;;;;;;20.95;64.98;99094.28;6116616;23;20025;-83
2021/06/12 09:31:57;;;;;;;2.40;2.30;;;;;;;20.84;65.73;99097.81;6165864;23;20145;-83
2021/06/12 09:34:23;;;;;;;2.60;2.40;;;;;;;20.94;65.48;99098.09;6165947;23;20108;-82
2021/06/12 09:36:50;;;;;;;2.40;2.30;;;;;;;20.77;66.30;99097.06;6163437;23;20044;-83
2021/06/12 09:39:23;;;;;;;2.60;2.40;;;;;;;21.13;65.86;99098.03;6167843;23;20021;-83
2021/06/12 09:41:54;;;;;;;2.28;2.17;;;;;;;21.21;65.76;99089.47;6165401;23;20021;-82
2021/06/12 09:44:35;;;;;;;3.22;2.60;;;;;;;21.57;65.31;99091.28;6141071;23;20032;-82
2021/06/12 09:47:21;;;;;;;2.20;2.10;;;;;;;21.67;63.89;99075.00;6141793;23;20022;-83
2021/06/12 09:49:50;;;;;;;2.25;2.15;;;;;;;21.86;63.27;99089.50;6119852;23;20022;-85
2021/06/12 09:52:21;;;;;;;2.47;2.28;;;;;;;21.84;63.61;99077.91;6143234;23;20025;-83
2021/06/12 09:54:51;;;;;;;2.30;2.10;;;;;;;21.77;63.96;99079.09;6144939;23;20056;-82
2021/06/12 09:57:23;;;;;;;1.90;1.80;;;;;;;21.55;64.01;99082.41;6168855;23;20028;-84
2021/06/12 09:59:56;;;;;;;2.00;1.90;;;;;;;21.94;62.79;99069.06;6146459;23;20026;-82
2021/06/12 10:02:49;;;;;;;2.10;2.00;;;;;;;22.13;62.88;99078.03;6169743;23;20051;-84
2021/06/12 10:05:22;;;;;;;2.20;2.00;;;;;;;22.68;61.15;99074.84;6133791;23;20025;-85
2021/06/12 10:07:48;;;;;;;2.15;2.05;;;;;;;23.24;59.19;99073.19;6171972;23;20052;-85
2021/06/12 10:10:15;;;;;;;2.00;1.90;;;;;;;23.55;59.53;99080.09;6170785;23;20009;-84
2021/06/12 10:12:41;;;;;;;2.70;2.60;;;;;;;23.59;58.82;99080.44;6119420;23;20018;-82
2021/06/12 10:15:13;;;;;;;2.45;2.35;;;;;;;23.52;59.04;99079.75;6170472;23;20080;-84
2021/06/12 10:17:46;;;;;;;1.73;1.63;;;;;;;23.71;57.70;99075.69;6164890;23;20369;-83
2021/06/12 10:20:12;;;;;;;;;;;;;;;23.72;57.67;99074.59;6162679;23;20085;-79
2021/06/12 10:22:45;;;;;;;1.90;1.80;;;;;;;22.79;59.70;99070.38;6164957;23;19917;-83
2021/06/12 10:25:13;;;;;;;1.80;1.70;;;;;;;22.53;60.49;99066.25;6121798;23;20021;-85
2021/06/12 10:27:46;;;;;;;1.80;1.70;;;;;;;22.67;61.32;99067.66;6169841;23;20076;-82
2021/06/12 10:30:14;;;;;;;1.60;1.50;;;;;;;23.34;58.31;99065.09;6144345;23;20100;-82
2021/06/12 10:32:51;;;;;;;1.75;1.65;;;;;;;22.99;58.42;99058.91;6168856;23;20049;-85
2021/06/12 10:35:26;;;;;;;1.73;1.48;;;;;;;23.18;57.78;99054.91;6175050;23;20088;-84
2021/06/12 10:37:59;;;;;;;1.80;1.70;;;;;;;23.28;58.75;99051.47;6144117;23;20017;-82
2021/06/12 10:40:42;;;;;;;1.88;1.77;;;;;;;23.38;59.19;99051.66;6173444;23;20015;-84
2021/06/12 10:43:22;;;;;;;1.75;1.65;;;;;;;23.89;56.25;99046.16;6148215;23;20092;-81
2021/06/12 10:46:06;;;;;;;1.50;1.40;;;;;;;23.56;57.27;99032.09;6172666;23;20033;-82
2021/06/12 10:48:53;;;;;;;1.40;1.40;;;;;;;23.51;57.20;99036.66;6168760;23;20514;-82
2021/06/12 10:51:27;;;;;;;1.70;1.60;;;;;;;23.84;56.22;99024.84;6194265;23;20041;-84
2021/06/12 10:54:19;;;;;;;1.50;1.40;;;;;;;23.98;55.26;99025.28;6172208;23;20032;-85
2021/06/12 10:56:53;;;;;;;1.30;1.30;;;;;;;24.54;53.91;99026.09;6166990;23;20044;-84
2021/06/12 10:59:41;;;;;;;1.42;1.42;;;;;;;23.94;54.96;99015.84;6147064;23;20017;-84
2021/06/12 11:02:41;;;;;;;1.10;1.10;;;;;;;24.18;53.90;99005.41;6117269;23;20072;-85
2021/06/12 11:05:06;;;;;;;1.00;1.00;;;;;;;24.55;53.31;99022.22;6168545;23;20056;-82
2021/06/12 11:07:41;;;;;;;1.30;1.20;;;;;;;24.40;54.74;99016.50;6165584;23;20021;-85
2021/06/12 11:10:13;;;;;;;1.40;1.30;;;;;;;24.15;53.86;99017.81;6144738;23;20026;-86
2021/06/12 11:12:45;;;;;;;1.30;1.30;;;;;;;24.58;52.24;99007.06;6169695;23;20021;-83
2021/06/12 11:15:27;;;;;;;2.00;1.90;;;;;;;25.51;50.16;99004.94;6145570;23;20026;-83
2021/06/12 11:18:21;;;;;;;2.10;2.00;;;;;;;26.75;47.76;99010.94;6167748;23;20060;-83
2021/06/12 11:21:07;;;;;;;2.10;2.00;;;;;;;27.24;46.57;99002.22;6144751;23;20021;-83
2021/06/12 11:23:53;;;;;;;1.30;1.30;;;;;;;25.91;48.71;98995.28;6144836;23;20025;-85
2021/06/12 11:26:21;;;;;;;1.30;1.30;;;;;;;25.30;50.77;98995.63;6172566;23;20428;-84
2021/06/12 11:29:10;;;;;;;1.60;1.60;;;;;;;25.97;48.86;98988.69;6145676;23;20023;-84
2021/06/12 11:31:37;;;;;;;1.38;1.27;;;;;;;26.20;49.36;98982.72;6167722;23;20085;-82
2021/06/12 11:34:21;;;;;;;1.38;1.27;;;;;;;26.25;49.25;98990.19;6165457;23;20097;-84
2021/06/12 11:37:36;;;;;;;1.63;1.52;;;;;;;25.94;49.31;98986.44;6168626;23;20017;-82
2021/06/12 11:40:06;;;;;;;1.30;1.30;;;;;;;25.89;50.22;98975.34;6160454;23;20032;-82
2021/06/12 11:42:45;;;;;;;1.65;1.63;;;;;;;25.66;50.16;98982.91;6164894;23;20022;-82
2021/06/12 11:45:24;;;;;;;0.90;0.90;;;;;;;25.25;50.91;98976.22;6163744;23;20096;-84